sensor_id;sensor_type;location;lat;lon;timestamp;P1;durP1;ratioP1;P2;durP2;ratioP2
20022;SDS011;10172;42.054;24.546;2022-11-15T00:02:05;15.52;;;9.00;;
20022;SDS011;10172;42.054;24.546;2022-11-15T00:04:30;15.85;;;8.25;;
20022;SDS011;10172;42.054;24.546;2022-11-15T00:06:56;15.32;;;9.13;;
20022;SDS011;10172;42.054;24.546;2022-11-15T00:09:21;21.23;;;10.25;;
20022;SDS011;10172;42.054;24.546;2022-11-15T00:11:47;15.60;;;8.25;;
20022;SDS011;10172;42.054;24.546;2022-11-15T00:14:12;13.80;;;8.23;;
20022;SDS011;10172;42.054;24.546;2022-11-15T00:16:37;18.13;;;9.65;;
20022;SDS011;10172;42.054;24.546;2022-11-15T00:19:03;19.17;;;10.23;;
20022;SDS011;10172;42.054;24.546;2022-11-15T00:21:28;13.00;;;7.95;;
20022;SDS011;10172;42.054;24.546;2022-11-15T00:23:54;14.43;;;8.70;;
20022;SDS011;10172;42.054;24.546;2022-11-15T00:26:19;16.63;;;9.73;;
20022;SDS011;10172;42.054;24.546;2022-11-15T00:28:45;13.98;;;8.38;;
20022;SDS011;10172;42.054;24.546;2022-11-15T00:31:12;14.40;;;9.25;;
20022;SDS011;10172;42.054;24.546;2022-11-15T00:33:38;17.13;;;9.27;;
20022;SDS011;10172;42.054;24.546;2022-11-15T00:36:07;17.25;;;8.25;;
20022;SDS011;10172;42.054;24.546;2022-11-15T00:38:39;12.25;;;7.60;;
20022;SDS011;10172;42.054;24.546;2022-11-15T00:41:05;16.75;;;8.73;;
20022;SDS011;10172;42.054;24.546;2022-11-15T00:43:32;13.68;;;7.60;;
20022;SDS011;10172;42.054;24.546;2022-11-15T00:45:58;11.70;;;7.50;;
20022;SDS011;10172;42.054;24.546;2022-11-15T00:48:24;13.93;;;7.65;;
20022;SDS011;10172;42.054;24.546;2022-11-15T00:50:50;13.20;;;7.82;;
20022;SDS011;10172;42.054;24.546;2022-11-15T00:53:15;12.75;;;7.85;;
20022;SDS011;10172;42.054;24.546;2022-11-15T00:55:41;16.30;;;8.95;;
20022;SDS011;10172;42.054;24.546;2022-11-15T00:58:06;12.35;;;7.82;;
20022;SDS011;10172;42.054;24.546;2022-11-15T01:00:32;17.88;;;9.20;;
20022;SDS011;10172;42.054;24.546;2022-11-15T01:02:59;13.00;;;8.80;;
20022;SDS011;10172;42.054;24.546;2022-11-15T01:05:25;13.43;;;8.15;;
20022;SDS011;10172;42.054;24.546;2022-11-15T01:07:54;18.17;;;9.35;;
20022;SDS011;10172;42.054;24.546;2022-11-15T01:10:21;19.50;;;9.38;;
20022;SDS011;10172;42.054;24.546;2022-11-15T01:12:48;17.38;;;10.02;;
20022;SDS011;10172;42.054;24.546;2022-11-15T01:15:13;13.20;;;8.35;;
20022;SDS011;10172;42.054;24.546;2022-11-15T01:17:39;17.98;;;8.93;;
20022;SDS011;10172;42.054;24.546;2022-11-15T01:20:05;16.00;;;8.40;;
20022;SDS011;10172;42.054;24.546;2022-11-15T01:22:31;13.77;;;8.75;;
20022;SDS011;10172;42.054;24.546;2022-11-15T01:24:56;16.30;;;10.10;;
20022;SDS011;10172;42.054;24.546;2022-11-15T01:27:22;16.17;;;9.63;;
20022;SDS011;10172;42.054;24.546;2022-11-15T01:29:47;19.23;;;9.65;;
20022;SDS011;10172;42.054;24.546;2022-11-15T01:32:13;23.63;;;11.52;;
20022;SDS011;10172;42.054;24.546;2022-11-15T01:34:38;15.70;;;9.25;;
20022;SDS011;10172;42.054;24.546;2022-11-15T01:37:03;16.98;;;10.38;;
20022;SDS011;10172;42.054;24.546;2022-11-15T01:39:29;16.65;;;8.85;;
20022;SDS011;10172;42.054;24.546;2022-11-15T01:41:54;21.35;;;10.90;;
20022;SDS011;10172;42.054;24.546;2022-11-15T01:47:16;11.95;;;7.80;;
20022;SDS011;10172;42.054;24.546;2022-11-15T01:52:26;13.95;;;8.32;;
20022;SDS011;10172;42.054;24.546;2022-11-15T01:54:56;16.88;;;8.23;;
20022;SDS011;10172;42.054;24.546;2022-11-15T01:57:23;11.35;;;7.07;;
20022;SDS011;10172;42.054;24.546;2022-11-15T01:59:48;15.52;;;8.40;;
20022;SDS011;10172;42.054;24.546;2022-11-15T02:02:14;12.88;;;8.38;;
20022;SDS011;10172;42.054;24.546;2022-11-15T02:04:41;13.45;;;7.65;;
20022;SDS011;10172;42.054;24.546;2022-11-15T02:07:09;10.98;;;6.43;;
20022;SDS011;10172;42.054;24.546;2022-11-15T02:09:38;11.38;;;7.13;;
20022;SDS011;10172;42.054;24.546;2022-11-15T02:12:05;9.63;;;6.45;;
20022;SDS011;10172;42.054;24.546;2022-11-15T02:14:34;13.07;;;7.40;;
20022;SDS011;10172;42.054;24.546;2022-11-15T02:30:33;10.18;;;6.25;;
20022;SDS011;10172;42.054;24.546;2022-11-15T02:39:19;10.40;;;6.00;;
20022;SDS011;10172;42.054;24.546;2022-11-15T02:41:48;12.95;;;6.93;;
20022;SDS011;10172;42.054;24.546;2022-11-15T02:44:23;9.98;;;6.35;;
20022;SDS011;10172;42.054;24.546;2022-11-15T02:46:56;15.00;;;7.25;;
20022;SDS011;10172;42.054;24.546;2022-11-15T02:49:39;10.98;;;6.35;;
20022;SDS011;10172;42.054;24.546;2022-11-15T02:52:08;13.23;;;7.07;;
20022;SDS011;10172;42.054;24.546;2022-11-15T02:54:33;9.77;;;6.10;;
20022;SDS011;10172;42.054;24.546;2022-11-15T02:57:00;12.73;;;7.32;;
20022;SDS011;10172;42.054;24.546;2022-11-15T03:00:06;11.05;;;6.00;;
20022;SDS011;10172;42.054;24.546;2022-11-15T03:05:23;10.75;;;6.68;;
20022;SDS011;10172;42.054;24.546;2022-11-15T03:08:22;10.15;;;6.75;;
20022;SDS011;10172;42.054;24.546;2022-11-15T03:11:12;10.65;;;5.78;;
20022;SDS011;10172;42.054;24.546;2022-11-15T03:21:54;10.55;;;6.07;;
20022;SDS011;10172;42.054;24.546;2022-11-15T03:24:23;12.27;;;7.10;;
20022;SDS011;10172;42.054;24.546;2022-11-15T03:26:50;10.77;;;6.32;;
20022;SDS011;10172;42.054;24.546;2022-11-15T03:29:22;9.70;;;5.88;;
20022;SDS011;10172;42.054;24.546;2022-11-15T03:31:53;11.65;;;6.40;;
20022;SDS011;10172;42.054;24.546;2022-11-15T03:37:07;10.43;;;6.07;;
20022;SDS011;10172;42.054;24.546;2022-11-15T03:39:35;14.52;;;6.75;;
20022;SDS011;10172;42.054;24.546;2022-11-15T03:47:53;9.75;;;5.72;;
20022;SDS011;10172;42.054;24.546;2022-11-15T03:50:24;9.77;;;6.07;;
20022;SDS011;10172;42.054;24.546;2022-11-15T03:52:50;9.60;;;5.72;;
20022;SDS011;10172;42.054;24.546;2022-11-15T03:55:19;13.50;;;6.40;;
20022;SDS011;10172;42.054;24.546;2022-11-15T03:57:46;12.18;;;6.38;;
20022;SDS011;10172;42.054;24.546;2022-11-15T04:00:14;9.23;;;5.32;;
20022;SDS011;10172;42.054;24.546;2022-11-15T04:02:40;9.40;;;5.28;;
20022;SDS011;10172;42.054;24.546;2022-11-15T04:05:05;9.82;;;5.45;;
20022;SDS011;10172;42.054;24.546;2022-11-15T04:07:31;10.63;;;5.60;;
20022;SDS011;10172;42.054;24.546;2022-11-15T04:09:56;9.88;;;5.18;;
20022;SDS011;10172;42.054;24.546;2022-11-15T04:12:31;10.13;;;6.22;;
20022;SDS011;10172;42.054;24.546;2022-11-15T04:15:09;8.52;;;5.10;;
20022;SDS011;10172;42.054;24.546;2022-11-15T04:17:46;10.25;;;6.40;;
20022;SDS011;10172;42.054;24.546;2022-11-15T04:20:24;9.13;;;3.78;;
20022;SDS011;10172;42.054;24.546;2022-11-15T04:23:13;16.25;;;6.78;;
20022;SDS011;10172;42.054;24.546;2022-11-15T04:26:02;13.60;;;6.40;;
20022;SDS011;10172;42.054;24.546;2022-11-15T04:28:30;10.43;;;5.75;;
20022;SDS011;10172;42.054;24.546;2022-11-15T04:30:55;9.07;;;6.10;;
20022;SDS011;10172;42.054;24.546;2022-11-15T04:33:21;14.57;;;6.40;;
20022;SDS011;10172;42.054;24.546;2022-11-15T04:35:47;12.82;;;7.13;;
20022;SDS011;10172;42.054;24.546;2022-11-15T04:38:32;10.38;;;5.80;;
20022;SDS011;10172;42.054;24.546;2022-11-15T04:43:40;10.07;;;5.40;;
20022;SDS011;10172;42.054;24.546;2022-11-15T04:46:05;10.23;;;5.57;;
20022;SDS011;10172;42.054;24.546;2022-11-15T04:48:31;10.25;;;5.75;;
20022;SDS011;10172;42.054;24.546;2022-11-15T04:50:56;10.18;;;5.55;;
20022;SDS011;10172;42.054;24.546;2022-11-15T04:53:22;12.07;;;7.45;;
20022;SDS011;10172;42.054;24.546;2022-11-15T04:55:47;13.75;;;8.23;;
20022;SDS011;10172;42.054;24.546;2022-11-15T04:58:12;11.88;;;6.80;;
20022;SDS011;10172;42.054;24.546;2022-11-15T05:00:38;11.15;;;5.60;;
20022;SDS011;10172;42.054;24.546;2022-11-15T05:03:04;12.57;;;6.07;;
20022;SDS011;10172;42.054;24.546;2022-11-15T05:05:48;9.20;;;5.55;;
20022;SDS011;10172;42.054;24.546;2022-11-15T05:08:14;9.55;;;5.72;;
20022;SDS011;10172;42.054;24.546;2022-11-15T05:10:39;9.43;;;5.70;;
20022;SDS011;10172;42.054;24.546;2022-11-15T05:13:04;12.52;;;6.97;;
20022;SDS011;10172;42.054;24.546;2022-11-15T05:15:30;10.32;;;6.70;;
20022;SDS011;10172;42.054;24.546;2022-11-15T05:17:58;10.70;;;6.40;;
20022;SDS011;10172;42.054;24.546;2022-11-15T05:20:25;13.02;;;7.30;;
20022;SDS011;10172;42.054;24.546;2022-11-15T05:22:52;9.27;;;6.30;;
20022;SDS011;10172;42.054;24.546;2022-11-15T05:25:18;9.48;;;5.93;;
20022;SDS011;10172;42.054;24.546;2022-11-15T05:27:43;9.90;;;6.15;;
20022;SDS011;10172;42.054;24.546;2022-11-15T05:30:09;9.10;;;5.78;;
20022;SDS011;10172;42.054;24.546;2022-11-15T05:32:35;13.73;;;6.22;;
20022;SDS011;10172;42.054;24.546;2022-11-15T05:35:01;8.60;;;5.68;;
20022;SDS011;10172;42.054;24.546;2022-11-15T05:37:28;9.90;;;6.30;;
20022;SDS011;10172;42.054;24.546;2022-11-15T05:39:54;10.32;;;5.85;;
20022;SDS011;10172;42.054;24.546;2022-11-15T05:42:19;11.93;;;6.63;;
20022;SDS011;10172;42.054;24.546;2022-11-15T05:44:46;10.38;;;6.35;;
20022;SDS011;10172;42.054;24.546;2022-11-15T05:47:16;15.45;;;6.82;;
20022;SDS011;10172;42.054;24.546;2022-11-15T05:49:45;13.00;;;7.60;;
20022;SDS011;10172;42.054;24.546;2022-11-15T05:52:13;12.68;;;7.53;;
20022;SDS011;10172;42.054;24.546;2022-11-15T05:54:43;13.85;;;8.82;;
20022;SDS011;10172;42.054;24.546;2022-11-15T05:57:09;14.43;;;6.32;;
20022;SDS011;10172;42.054;24.546;2022-11-15T05:59:34;10.18;;;6.65;;
20022;SDS011;10172;42.054;24.546;2022-11-15T06:02:01;12.13;;;6.90;;
20022;SDS011;10172;42.054;24.546;2022-11-15T06:04:26;9.50;;;6.18;;
20022;SDS011;10172;42.054;24.546;2022-11-15T06:06:52;12.43;;;7.65;;
20022;SDS011;10172;42.054;24.546;2022-11-15T06:09:17;10.18;;;6.80;;
20022;SDS011;10172;42.054;24.546;2022-11-15T06:11:42;11.18;;;6.32;;
20022;SDS011;10172;42.054;24.546;2022-11-15T06:14:08;15.02;;;7.93;;
20022;SDS011;10172;42.054;24.546;2022-11-15T06:16:33;11.75;;;7.30;;
20022;SDS011;10172;42.054;24.546;2022-11-15T06:18:59;10.15;;;6.47;;
20022;SDS011;10172;42.054;24.546;2022-11-15T06:21:24;11.77;;;6.70;;
20022;SDS011;10172;42.054;24.546;2022-11-15T06:23:52;11.73;;;7.95;;
20022;SDS011;10172;42.054;24.546;2022-11-15T06:26:18;10.98;;;7.10;;
20022;SDS011;10172;42.054;24.546;2022-11-15T06:28:43;12.65;;;7.22;;
20022;SDS011;10172;42.054;24.546;2022-11-15T06:31:09;10.07;;;6.90;;
20022;SDS011;10172;42.054;24.546;2022-11-15T06:33:38;13.05;;;6.80;;
20022;SDS011;10172;42.054;24.546;2022-11-15T06:36:05;13.00;;;6.80;;
20022;SDS011;10172;42.054;24.546;2022-11-15T06:38:33;9.73;;;6.53;;
20022;SDS011;10172;42.054;24.546;2022-11-15T06:41:02;9.52;;;6.93;;
20022;SDS011;10172;42.054;24.546;2022-11-15T06:43:32;13.18;;;6.65;;
20022;SDS011;10172;42.054;24.546;2022-11-15T06:45:59;13.00;;;7.05;;
20022;SDS011;10172;42.054;24.546;2022-11-15T06:48:25;8.65;;;5.75;;
20022;SDS011;10172;42.054;24.546;2022-11-15T06:50:51;13.27;;;7.38;;
20022;SDS011;10172;42.054;24.546;2022-11-15T06:53:21;10.98;;;6.22;;
20022;SDS011;10172;42.054;24.546;2022-11-15T06:55:47;12.75;;;6.40;;
20022;SDS011;10172;42.054;24.546;2022-11-15T06:58:16;10.98;;;6.55;;
20022;SDS011;10172;42.054;24.546;2022-11-15T07:00:41;11.07;;;6.32;;
20022;SDS011;10172;42.054;24.546;2022-11-15T07:03:08;10.63;;;6.90;;
20022;SDS011;10172;42.054;24.546;2022-11-15T07:05:33;10.52;;;7.53;;
20022;SDS011;10172;42.054;24.546;2022-11-15T07:08:00;11.07;;;7.40;;
20022;SDS011;10172;42.054;24.546;2022-11-15T07:10:27;14.73;;;6.85;;
20022;SDS011;10172;42.054;24.546;2022-11-15T07:12:52;10.32;;;6.95;;
20022;SDS011;10172;42.054;24.546;2022-11-15T07:15:19;14.95;;;7.68;;
20022;SDS011;10172;42.054;24.546;2022-11-15T07:17:46;13.95;;;7.32;;
20022;SDS011;10172;42.054;24.546;2022-11-15T07:20:12;23.02;;;9.07;;
20022;SDS011;10172;42.054;24.546;2022-11-15T07:22:39;16.83;;;10.48;;
20022;SDS011;10172;42.054;24.546;2022-11-15T07:25:05;22.70;;;11.95;;
20022;SDS011;10172;42.054;24.546;2022-11-15T07:27:31;18.30;;;9.63;;
20022;SDS011;10172;42.054;24.546;2022-11-15T07:29:56;19.23;;;9.10;;
20022;SDS011;10172;42.054;24.546;2022-11-15T07:32:21;15.80;;;8.38;;
20022;SDS011;10172;42.054;24.546;2022-11-15T07:34:47;12.55;;;7.95;;
20022;SDS011;10172;42.054;24.546;2022-11-15T07:37:12;11.85;;;7.15;;
20022;SDS011;10172;42.054;24.546;2022-11-15T07:39:38;14.68;;;8.60;;
20022;SDS011;10172;42.054;24.546;2022-11-15T07:42:03;16.13;;;9.50;;
20022;SDS011;10172;42.054;24.546;2022-11-15T07:44:48;19.63;;;11.40;;
20022;SDS011;10172;42.054;24.546;2022-11-15T07:47:13;17.80;;;11.35;;
20022;SDS011;10172;42.054;24.546;2022-11-15T07:49:39;16.15;;;11.00;;
20022;SDS011;10172;42.054;24.546;2022-11-15T07:52:04;19.65;;;11.35;;
20022;SDS011;10172;42.054;24.546;2022-11-15T07:54:30;19.17;;;11.25;;
20022;SDS011;10172;42.054;24.546;2022-11-15T07:56:55;20.05;;;11.27;;
20022;SDS011;10172;42.054;24.546;2022-11-15T07:59:20;16.95;;;10.27;;
20022;SDS011;10172;42.054;24.546;2022-11-15T08:01:46;16.48;;;9.38;;
20022;SDS011;10172;42.054;24.546;2022-11-15T08:04:11;16.88;;;9.85;;
20022;SDS011;10172;42.054;24.546;2022-11-15T08:06:37;18.42;;;9.07;;
20022;SDS011;10172;42.054;24.546;2022-11-15T08:09:04;15.38;;;8.88;;
20022;SDS011;10172;42.054;24.546;2022-11-15T08:11:30;12.38;;;7.38;;
20022;SDS011;10172;42.054;24.546;2022-11-15T08:13:55;12.00;;;7.53;;
20022;SDS011;10172;42.054;24.546;2022-11-15T08:16:21;11.80;;;7.15;;
20022;SDS011;10172;42.054;24.546;2022-11-15T08:18:46;12.40;;;7.75;;
20022;SDS011;10172;42.054;24.546;2022-11-15T08:21:13;13.20;;;7.47;;
20022;SDS011;10172;42.054;24.546;2022-11-15T08:23:42;11.90;;;6.90;;
20022;SDS011;10172;42.054;24.546;2022-11-15T08:26:08;11.05;;;6.35;;
20022;SDS011;10172;42.054;24.546;2022-11-15T08:28:34;10.73;;;6.68;;
20022;SDS011;10172;42.054;24.546;2022-11-15T08:31:00;10.73;;;6.70;;
20022;SDS011;10172;42.054;24.546;2022-11-15T08:33:25;10.50;;;6.32;;
20022;SDS011;10172;42.054;24.546;2022-11-15T08:35:51;11.98;;;7.18;;
20022;SDS011;10172;42.054;24.546;2022-11-15T08:38:17;13.23;;;6.95;;
20022;SDS011;10172;42.054;24.546;2022-11-15T08:40:42;13.13;;;7.43;;
20022;SDS011;10172;42.054;24.546;2022-11-15T08:43:07;14.77;;;7.72;;
20022;SDS011;10172;42.054;24.546;2022-11-15T08:45:34;14.68;;;7.25;;
20022;SDS011;10172;42.054;24.546;2022-11-15T08:48:01;16.20;;;8.15;;
20022;SDS011;10172;42.054;24.546;2022-11-15T08:50:28;11.20;;;6.45;;
20022;SDS011;10172;42.054;24.546;2022-11-15T08:52:53;11.15;;;6.30;;
20022;SDS011;10172;42.054;24.546;2022-11-15T08:55:19;12.50;;;5.57;;
20022;SDS011;10172;42.054;24.546;2022-11-15T08:57:44;12.50;;;6.72;;
20022;SDS011;10172;42.054;24.546;2022-11-15T09:00:10;10.27;;;5.85;;
20022;SDS011;10172;42.054;24.546;2022-11-15T09:02:37;12.35;;;6.15;;
20022;SDS011;10172;42.054;24.546;2022-11-15T09:05:03;9.23;;;5.88;;
20022;SDS011;10172;42.054;24.546;2022-11-15T09:07:30;9.05;;;5.55;;
20022;SDS011;10172;42.054;24.546;2022-11-15T09:09:56;9.18;;;5.20;;
20022;SDS011;10172;42.054;24.546;2022-11-15T09:12:22;11.40;;;5.60;;
20022;SDS011;10172;42.054;24.546;2022-11-15T09:14:49;9.02;;;5.28;;
20022;SDS011;10172;42.054;24.546;2022-11-15T09:17:15;7.65;;;5.25;;
20022;SDS011;10172;42.054;24.546;2022-11-15T09:19:41;10.35;;;6.13;;
20022;SDS011;10172;42.054;24.546;2022-11-15T09:22:06;9.75;;;5.53;;
20022;SDS011;10172;42.054;24.546;2022-11-15T09:24:32;9.38;;;5.85;;
20022;SDS011;10172;42.054;24.546;2022-11-15T09:26:58;11.18;;;5.22;;
20022;SDS011;10172;42.054;24.546;2022-11-15T09:29:23;9.90;;;5.07;;
20022;SDS011;10172;42.054;24.546;2022-11-15T09:31:51;9.70;;;5.22;;
20022;SDS011;10172;42.054;24.546;2022-11-15T09:34:17;9.70;;;5.03;;
20022;SDS011;10172;42.054;24.546;2022-11-15T09:36:42;9.77;;;5.55;;
20022;SDS011;10172;42.054;24.546;2022-11-15T09:39:08;9.68;;;5.88;;
20022;SDS011;10172;42.054;24.546;2022-11-15T09:49:30;12.43;;;6.68;;
20022;SDS011;10172;42.054;24.546;2022-11-15T09:51:57;10.90;;;6.45;;
20022;SDS011;10172;42.054;24.546;2022-11-15T09:54:28;9.80;;;6.25;;
20022;SDS011;10172;42.054;24.546;2022-11-15T09:56:55;14.25;;;6.80;;
20022;SDS011;10172;42.054;24.546;2022-11-15T09:59:42;11.73;;;7.32;;
20022;SDS011;10172;42.054;24.546;2022-11-15T10:04:37;14.75;;;8.20;;
20022;SDS011;10172;42.054;24.546;2022-11-15T10:09:48;12.20;;;7.93;;
20022;SDS011;10172;42.054;24.546;2022-11-15T10:12:18;14.68;;;7.53;;
20022;SDS011;10172;42.054;24.546;2022-11-15T10:14:44;13.10;;;7.45;;
20022;SDS011;10172;42.054;24.546;2022-11-15T10:17:29;13.32;;;8.00;;
20022;SDS011;10172;42.054;24.546;2022-11-15T10:20:21;12.20;;;7.85;;
20022;SDS011;10172;42.054;24.546;2022-11-15T10:22:53;13.75;;;8.55;;
20022;SDS011;10172;42.054;24.546;2022-11-15T10:25:22;15.27;;;7.80;;
20022;SDS011;10172;42.054;24.546;2022-11-15T10:28:06;14.65;;;8.98;;
20022;SDS011;10172;42.054;24.546;2022-11-15T10:30:44;13.65;;;8.55;;
20022;SDS011;10172;42.054;24.546;2022-11-15T10:35:43;18.10;;;9.88;;
20022;SDS011;10172;42.054;24.546;2022-11-15T10:38:10;17.20;;;9.82;;
20022;SDS011;10172;42.054;24.546;2022-11-15T10:40:37;15.70;;;9.30;;
20022;SDS011;10172;42.054;24.546;2022-11-15T10:45:36;21.00;;;10.70;;
20022;SDS011;10172;42.054;24.546;2022-11-15T10:50:37;16.70;;;9.68;;
20022;SDS011;10172;42.054;24.546;2022-11-15T10:53:03;18.45;;;10.77;;
20022;SDS011;10172;42.054;24.546;2022-11-15T10:55:32;15.35;;;9.68;;
20022;SDS011;10172;42.054;24.546;2022-11-15T11:00:52;18.80;;;11.90;;
20022;SDS011;10172;42.054;24.546;2022-11-15T11:03:34;18.05;;;9.90;;
20022;SDS011;10172;42.054;24.546;2022-11-15T11:06:14;20.58;;;10.55;;
20022;SDS011;10172;42.054;24.546;2022-11-15T11:09:00;20.27;;;11.30;;
20022;SDS011;10172;42.054;24.546;2022-11-15T11:11:50;17.58;;;11.35;;
20022;SDS011;10172;42.054;24.546;2022-11-15T11:14:19;16.95;;;9.60;;
20022;SDS011;10172;42.054;24.546;2022-11-15T11:17:01;15.93;;;9.70;;
20022;SDS011;10172;42.054;24.546;2022-11-15T11:19:46;15.57;;;9.57;;
20022;SDS011;10172;42.054;24.546;2022-11-15T11:33:44;17.95;;;10.95;;
20022;SDS011;10172;42.054;24.546;2022-11-15T11:44:32;18.15;;;11.15;;
20022;SDS011;10172;42.054;24.546;2022-11-15T11:47:10;20.25;;;10.48;;
20022;SDS011;10172;42.054;24.546;2022-11-15T11:50:24;20.30;;;11.65;;
20022;SDS011;10172;42.054;24.546;2022-11-15T11:55:24;19.08;;;10.27;;
20022;SDS011;10172;42.054;24.546;2022-11-15T11:58:17;19.80;;;11.27;;
20022;SDS011;10172;42.054;24.546;2022-11-15T12:09:02;15.77;;;10.73;;
20022;SDS011;10172;42.054;24.546;2022-11-15T12:14:47;19.00;;;10.82;;
20022;SDS011;10172;42.054;24.546;2022-11-15T12:17:19;19.27;;;10.95;;
20022;SDS011;10172;42.054;24.546;2022-11-15T12:19:48;16.60;;;10.70;;
20022;SDS011;10172;42.054;24.546;2022-11-15T12:22:17;19.23;;;11.52;;
20022;SDS011;10172;42.054;24.546;2022-11-15T12:24:55;18.95;;;11.88;;
20022;SDS011;10172;42.054;24.546;2022-11-15T12:27:29;19.42;;;10.50;;
20022;SDS011;10172;42.054;24.546;2022-11-15T12:29:57;19.08;;;12.18;;
20022;SDS011;10172;42.054;24.546;2022-11-15T12:34:56;18.23;;;12.15;;
20022;SDS011;10172;42.054;24.546;2022-11-15T12:42:41;19.25;;;10.57;;
20022;SDS011;10172;42.054;24.546;2022-11-15T12:47:56;25.98;;;12.25;;
20022;SDS011;10172;42.054;24.546;2022-11-15T12:50:56;16.98;;;10.02;;
20022;SDS011;10172;42.054;24.546;2022-11-15T13:04:13;24.48;;;12.20;;
20022;SDS011;10172;42.054;24.546;2022-11-15T13:06:48;24.17;;;11.90;;
20022;SDS011;10172;42.054;24.546;2022-11-15T13:11:57;21.75;;;12.43;;
20022;SDS011;10172;42.054;24.546;2022-11-15T13:17:48;19.88;;;11.82;;
20022;SDS011;10172;42.054;24.546;2022-11-15T13:22:32;20.60;;;11.57;;
20022;SDS011;10172;42.054;24.546;2022-11-15T13:25:40;20.10;;;11.02;;
20022;SDS011;10172;42.054;24.546;2022-11-15T13:28:47;19.95;;;11.32;;
20022;SDS011;10172;42.054;24.546;2022-11-15T13:33:55;18.20;;;12.05;;
20022;SDS011;10172;42.054;24.546;2022-11-15T13:36:25;26.35;;;12.25;;
20022;SDS011;10172;42.054;24.546;2022-11-15T13:38:55;20.05;;;13.27;;
20022;SDS011;10172;42.054;24.546;2022-11-15T13:41:23;23.05;;;14.25;;
20022;SDS011;10172;42.054;24.546;2022-11-15T13:43:51;26.40;;;14.13;;
20022;SDS011;10172;42.054;24.546;2022-11-15T13:46:19;22.92;;;12.60;;
20022;SDS011;10172;42.054;24.546;2022-11-15T13:48:52;22.15;;;11.85;;
20022;SDS011;10172;42.054;24.546;2022-11-15T13:51:29;21.40;;;12.45;;
20022;SDS011;10172;42.054;24.546;2022-11-15T13:54:03;22.83;;;12.45;;
20022;SDS011;10172;42.054;24.546;2022-11-15T13:57:11;22.77;;;13.13;;
20022;SDS011;10172;42.054;24.546;2022-11-15T13:59:44;20.15;;;13.05;;
20022;SDS011;10172;42.054;24.546;2022-11-15T14:02:15;25.08;;;13.15;;
20022;SDS011;10172;42.054;24.546;2022-11-15T14:04:47;20.80;;;13.25;;
20022;SDS011;10172;42.054;24.546;2022-11-15T14:07:16;23.73;;;13.52;;
20022;SDS011;10172;42.054;24.546;2022-11-15T14:09:44;22.10;;;14.00;;
20022;SDS011;10172;42.054;24.546;2022-11-15T14:15:34;26.88;;;14.93;;
20022;SDS011;10172;42.054;24.546;2022-11-15T14:18:01;21.40;;;14.13;;
20022;SDS011;10172;42.054;24.546;2022-11-15T14:20:32;24.38;;;13.73;;
20022;SDS011;10172;42.054;24.546;2022-11-15T14:23:03;23.50;;;12.98;;
20022;SDS011;10172;42.054;24.546;2022-11-15T14:25:54;27.50;;;13.95;;
20022;SDS011;10172;42.054;24.546;2022-11-15T14:30:47;26.13;;;14.32;;
20022;SDS011;10172;42.054;24.546;2022-11-15T14:35:58;20.35;;;13.07;;
20022;SDS011;10172;42.054;24.546;2022-11-15T14:38:28;21.75;;;14.40;;
20022;SDS011;10172;42.054;24.546;2022-11-15T14:40:54;27.02;;;15.48;;
20022;SDS011;10172;42.054;24.546;2022-11-15T14:43:20;23.58;;;13.23;;
20022;SDS011;10172;42.054;24.546;2022-11-15T14:45:46;28.30;;;13.98;;
20022;SDS011;10172;42.054;24.546;2022-11-15T14:48:11;19.08;;;12.02;;
20022;SDS011;10172;42.054;24.546;2022-11-15T14:50:37;41.55;;;20.73;;
20022;SDS011;10172;42.054;24.546;2022-11-15T14:53:02;35.97;;;18.58;;
20022;SDS011;10172;42.054;24.546;2022-11-15T14:55:30;32.58;;;16.63;;
20022;SDS011;10172;42.054;24.546;2022-11-15T14:57:59;26.73;;;16.40;;
20022;SDS011;10172;42.054;24.546;2022-11-15T15:00:27;31.02;;;18.08;;
20022;SDS011;10172;42.054;24.546;2022-11-15T15:02:53;44.47;;;24.60;;
20022;SDS011;10172;42.054;24.546;2022-11-15T15:05:20;32.03;;;17.25;;
20022;SDS011;10172;42.054;24.546;2022-11-15T15:07:51;30.27;;;16.90;;
20022;SDS011;10172;42.054;24.546;2022-11-15T15:10:18;38.88;;;19.90;;
20022;SDS011;10172;42.054;24.546;2022-11-15T15:12:43;41.45;;;22.90;;
20022;SDS011;10172;42.054;24.546;2022-11-15T15:15:12;41.42;;;21.70;;
20022;SDS011;10172;42.054;24.546;2022-11-15T15:17:42;36.15;;;20.60;;
20022;SDS011;10172;42.054;24.546;2022-11-15T15:20:09;34.58;;;18.83;;
20022;SDS011;10172;42.054;24.546;2022-11-15T15:22:34;33.22;;;18.42;;
20022;SDS011;10172;42.054;24.546;2022-11-15T15:25:00;30.27;;;17.67;;
20022;SDS011;10172;42.054;24.546;2022-11-15T15:27:26;31.27;;;16.13;;
20022;SDS011;10172;42.054;24.546;2022-11-15T15:29:54;29.45;;;17.40;;
20022;SDS011;10172;42.054;24.546;2022-11-15T15:32:20;26.80;;;15.80;;
20022;SDS011;10172;42.054;24.546;2022-11-15T15:34:45;33.17;;;19.55;;
20022;SDS011;10172;42.054;24.546;2022-11-15T15:37:24;34.08;;;20.55;;
20022;SDS011;10172;42.054;24.546;2022-11-15T15:39:51;39.47;;;18.65;;
20022;SDS011;10172;42.054;24.546;2022-11-15T15:42:18;39.75;;;17.02;;
20022;SDS011;10172;42.054;24.546;2022-11-15T15:44:44;30.95;;;16.95;;
20022;SDS011;10172;42.054;24.546;2022-11-15T15:47:11;33.85;;;16.40;;
20022;SDS011;10172;42.054;24.546;2022-11-15T15:49:38;31.98;;;16.50;;
20022;SDS011;10172;42.054;24.546;2022-11-15T15:52:04;26.42;;;15.77;;
20022;SDS011;10172;42.054;24.546;2022-11-15T15:54:29;30.20;;;16.95;;
20022;SDS011;10172;42.054;24.546;2022-11-15T15:56:54;30.02;;;15.43;;
20022;SDS011;10172;42.054;24.546;2022-11-15T15:59:20;27.08;;;13.40;;
20022;SDS011;10172;42.054;24.546;2022-11-15T16:01:45;29.25;;;15.77;;
20022;SDS011;10172;42.054;24.546;2022-11-15T16:04:11;29.95;;;15.10;;
20022;SDS011;10172;42.054;24.546;2022-11-15T16:06:37;23.13;;;14.27;;
20022;SDS011;10172;42.054;24.546;2022-11-15T16:09:08;24.00;;;13.07;;
20022;SDS011;10172;42.054;24.546;2022-11-15T16:11:40;24.50;;;14.00;;
20022;SDS011;10172;42.054;24.546;2022-11-15T16:14:11;25.30;;;14.68;;
20022;SDS011;10172;42.054;24.546;2022-11-15T16:16:37;23.25;;;13.60;;
20022;SDS011;10172;42.054;24.546;2022-11-15T16:19:05;21.42;;;13.30;;
20022;SDS011;10172;42.054;24.546;2022-11-15T16:21:31;22.35;;;14.73;;
20022;SDS011;10172;42.054;24.546;2022-11-15T16:23:56;24.73;;;13.93;;
20022;SDS011;10172;42.054;24.546;2022-11-15T16:26:24;25.05;;;12.80;;
20022;SDS011;10172;42.054;24.546;2022-11-15T16:28:51;23.73;;;13.73;;
20022;SDS011;10172;42.054;24.546;2022-11-15T16:31:17;21.33;;;13.45;;
20022;SDS011;10172;42.054;24.546;2022-11-15T16:33:46;23.60;;;12.98;;
20022;SDS011;10172;42.054;24.546;2022-11-15T16:38:47;30.83;;;13.68;;
20022;SDS011;10172;42.054;24.546;2022-11-15T16:41:13;22.27;;;14.00;;
20022;SDS011;10172;42.054;24.546;2022-11-15T16:43:39;23.67;;;13.30;;
20022;SDS011;10172;42.054;24.546;2022-11-15T16:46:16;26.90;;;14.27;;
20022;SDS011;10172;42.054;24.546;2022-11-15T16:48:46;23.52;;;14.52;;
20022;SDS011;10172;42.054;24.546;2022-11-15T16:51:12;25.10;;;14.48;;
20022;SDS011;10172;42.054;24.546;2022-11-15T16:53:38;24.25;;;14.25;;
20022;SDS011;10172;42.054;24.546;2022-11-15T16:56:09;24.63;;;13.32;;
20022;SDS011;10172;42.054;24.546;2022-11-15T16:58:42;29.30;;;13.73;;